createdAt,value
2019-02-24T00:01:58.024Z,1023.99
2019-02-24T00:07:58.095Z,1023.89
2019-02-24T00:13:58.162Z,1023.87
2019-02-24T00:19:58.019Z,1023.91
2019-02-24T00:25:58.049Z,1023.88
2019-02-24T00:31:58.082Z,1023.93
2019-02-24T00:37:58.064Z,1023.88
2019-02-24T00:43:58.061Z,1023.79
2019-02-24T00:49:58.060Z,1023.90
2019-02-24T00:55:58.120Z,1023.87
2019-02-24T01:01:59.858Z,1023.87
2019-02-24T01:07:58.093Z,1023.78
2019-02-24T01:13:58.150Z,1023.73
2019-02-24T01:19:58.076Z,1023.61
2019-02-24T01:25:58.071Z,1023.43
2019-02-24T01:31:58.171Z,1023.45
2019-02-24T01:37:58.072Z,1023.47
2019-02-24T01:43:58.163Z,1023.42
2019-02-24T01:49:58.267Z,1023.38
2019-02-24T01:55:58.134Z,1023.32
2019-02-24T02:01:58.176Z,1023.41
2019-02-24T02:07:58.112Z,1023.42
2019-02-24T02:13:58.097Z,1023.41
2019-02-24T02:19:58.109Z,1023.41
2019-02-24T02:25:58.311Z,1023.40
2019-02-24T02:31:58.107Z,1023.46
2019-02-24T02:37:58.223Z,1023.42
2019-02-24T02:43:58.159Z,1023.35
2019-02-24T02:49:58.243Z,1023.40
2019-02-24T02:55:58.140Z,1023.43
2019-02-24T03:01:58.193Z,1023.44
2019-02-24T03:07:58.121Z,1023.51
2019-02-24T03:13:58.184Z,1023.47
2019-02-24T03:19:58.145Z,1023.46
2019-02-24T03:25:58.145Z,1023.49
2019-02-24T03:31:58.185Z,1023.51
2019-02-24T03:37:58.239Z,1023.56
2019-02-24T03:43:58.165Z,1023.58
2019-02-24T03:49:58.162Z,1023.63
2019-02-24T03:55:58.180Z,1023.61
2019-02-24T04:01:58.159Z,1023.70
2019-02-24T04:07:58.167Z,1023.65
2019-02-24T04:13:58.302Z,1023.74
2019-02-24T04:19:58.182Z,1023.82
2019-02-24T04:25:58.200Z,1023.83
2019-02-24T04:31:58.194Z,1023.85
2019-02-24T04:37:58.250Z,1023.91
2019-02-24T04:43:58.203Z,1023.88
2019-02-24T04:49:58.213Z,1023.98
2019-02-24T04:55:58.206Z,1023.95
2019-02-24T05:01:58.213Z,1023.81
2019-02-24T05:07:58.218Z,1023.75
2019-02-24T05:13:58.225Z,1023.76
2019-02-24T05:19:58.230Z,1023.78
2019-02-24T05:25:58.223Z,1023.80
2019-02-24T05:31:58.226Z,1023.88
2019-02-24T05:37:58.236Z,1023.93
2019-02-24T05:43:58.246Z,1024.01
2019-02-24T05:49:58.342Z,1024.07
2019-02-24T05:55:58.252Z,1024.07
2019-02-24T06:01:58.253Z,1024.04
2019-02-24T06:07:58.257Z,1024.12
2019-02-24T06:13:58.329Z,1024.17
2019-02-24T06:19:58.285Z,1024.22
2019-02-24T06:25:58.269Z,1024.38
2019-02-24T06:31:58.284Z,1024.41
2019-02-24T06:37:58.286Z,1024.53
2019-02-24T06:43:58.315Z,1024.67
2019-02-24T06:49:58.289Z,1024.69
2019-02-24T06:55:58.290Z,1024.75
2019-02-24T07:01:58.297Z,1024.76
2019-02-24T07:07:58.527Z,1024.77
2019-02-24T07:13:58.285Z,1024.82
2019-02-24T07:19:58.305Z,1024.85
2019-02-24T07:25:58.417Z,1024.77
2019-02-24T07:31:58.320Z,1024.84
2019-02-24T07:37:58.323Z,1024.82
2019-02-24T07:43:58.320Z,1024.74
2019-02-24T07:49:58.380Z,1024.73
2019-02-24T07:55:58.418Z,1024.77
2019-02-24T08:01:58.366Z,1024.83
2019-02-24T08:07:58.408Z,1024.85
2019-02-24T08:13:58.446Z,1024.94
2019-02-24T08:19:58.337Z,1024.99
2019-02-24T08:25:58.433Z,1025.01
2019-02-24T08:31:58.348Z,1024.96
2019-02-24T08:37:58.357Z,1024.85
2019-02-24T08:43:58.473Z,1024.82
2019-02-24T08:49:58.360Z,1024.85
2019-02-24T08:55:58.432Z,1024.83
2019-02-24T09:01:58.479Z,1024.74
2019-02-24T09:07:58.423Z,1024.75
2019-02-24T09:13:58.463Z,1024.58
2019-02-24T09:19:58.401Z,1024.47
2019-02-24T09:25:58.468Z,1024.32
2019-02-24T09:31:58.476Z,1024.24
2019-02-24T09:37:58.447Z,1024.24
2019-02-24T09:43:58.486Z,1024.20
2019-02-24T09:49:58.511Z,1024.22
2019-02-24T09:55:58.455Z,1024.27
2019-02-24T10:01:58.489Z,1024.21
2019-02-24T10:07:58.525Z,1024.15
2019-02-24T10:13:58.496Z,1024.15
2019-02-24T10:19:58.509Z,1024.08
2019-02-24T10:25:58.467Z,1024.00
2019-02-24T10:31:58.507Z,1023.94
2019-02-24T10:37:58.433Z,1023.99
2019-02-24T10:43:58.489Z,1023.85
2019-02-24T10:49:58.434Z,1023.77
2019-02-24T10:55:58.442Z,1023.71
2019-02-24T11:01:58.447Z,1023.64
2019-02-24T11:07:58.460Z,1023.77
2019-02-24T11:13:58.438Z,1023.69
2019-02-24T11:19:58.469Z,1023.68
2019-02-24T11:25:58.481Z,1023.59
2019-02-24T11:31:58.458Z,1023.66
2019-02-24T11:37:58.559Z,1023.64
2019-02-24T11:43:58.481Z,1023.59
2019-02-24T11:49:58.477Z,1023.54
2019-02-24T11:55:58.499Z,1023.46
2019-02-24T12:01:58.511Z,1023.45
2019-02-24T12:07:58.496Z,1023.49
2019-02-24T12:13:58.508Z,1023.45
2019-02-24T12:19:58.525Z,1023.48
2019-02-24T12:25:58.563Z,1023.59
2019-02-24T12:31:58.520Z,1023.52
2019-02-24T12:37:58.533Z,1023.52
2019-02-24T12:43:58.516Z,1023.59
2019-02-24T12:50:03.131Z,1023.56
2019-02-24T12:55:58.600Z,1023.62
2019-02-24T13:02:05.512Z,1023.64
2019-02-24T13:07:58.527Z,1023.52
2019-02-24T13:13:58.523Z,1023.47
2019-02-24T13:19:58.568Z,1023.48
2019-02-24T13:25:58.529Z,1023.46
2019-02-24T13:31:58.551Z,1023.30
2019-02-24T13:37:58.560Z,1023.32
2019-02-24T13:43:58.549Z,1023.21
2019-02-24T13:49:58.540Z,1023.16
2019-02-24T13:55:58.623Z,1023.17
2019-02-24T14:01:58.564Z,1023.16
2019-02-24T14:07:58.552Z,1023.10
2019-02-24T14:13:58.557Z,1023.18
2019-02-24T14:19:59.972Z,1023.26
2019-02-24T14:25:58.618Z,1023.33
2019-02-24T14:31:58.651Z,1023.36
2019-02-24T14:37:58.592Z,1023.31
2019-02-24T14:43:58.637Z,1023.28
2019-02-24T14:49:58.622Z,1023.30
2019-02-24T14:55:58.606Z,1023.32
2019-02-24T15:01:58.603Z,1023.25
2019-02-24T15:07:58.607Z,1023.17
2019-02-24T15:13:58.594Z,1023.13
2019-02-24T15:19:58.688Z,1023.12
2019-02-24T15:25:58.636Z,1023.05
2019-02-24T15:31:58.642Z,1023.04
2019-02-24T15:37:58.614Z,1023.07
2019-02-24T15:43:58.644Z,1023.08
2019-02-24T15:49:59.162Z,1023.01
2019-02-24T15:55:58.635Z,1022.88
2019-02-24T16:01:59.691Z,1022.95
2019-02-24T16:07:58.714Z,1022.89
2019-02-24T16:13:58.673Z,1022.96
2019-02-24T16:19:58.726Z,1022.92
2019-02-24T16:25:58.762Z,1022.91
2019-02-24T16:31:58.683Z,1022.89
2019-02-24T16:37:58.727Z,1022.93
2019-02-24T16:43:58.671Z,1022.96
2019-02-24T16:49:58.711Z,1023.14
2019-02-24T16:55:58.687Z,1023.19
2019-02-24T17:28:48.942Z,1023.59
2019-02-24T17:34:48.949Z,1023.64
2019-02-24T17:40:48.954Z,1023.67
2019-02-24T17:46:48.969Z,1023.68
2019-02-24T17:52:48.965Z,1023.75
2019-02-24T17:58:49.031Z,1023.78
2019-02-24T18:04:49.013Z,1023.75
2019-02-24T18:10:49.015Z,1023.79
2019-02-24T18:16:49.036Z,1023.75
2019-02-24T18:22:49.032Z,1023.66
2019-02-24T18:28:48.973Z,1023.79
2019-02-24T18:34:48.996Z,1023.71
2019-02-24T18:40:48.985Z,1023.80
2019-02-24T18:46:49.017Z,1023.74
2019-02-24T18:52:49.016Z,1023.69
2019-02-24T18:58:49.027Z,1023.67
2019-02-24T19:04:49.017Z,1023.73
2019-02-24T19:10:49.019Z,1023.72
2019-02-24T19:16:49.195Z,1023.73
2019-02-24T19:22:49.043Z,1023.75
2019-02-24T19:28:49.040Z,1023.64
2019-02-24T19:34:49.044Z,1023.72
2019-02-24T19:40:49.067Z,1023.69
2019-02-24T19:46:49.055Z,1023.67
2019-02-24T19:52:49.054Z,1023.70
2019-02-24T19:58:49.157Z,1023.92
2019-02-24T20:04:49.046Z,1023.88
2019-02-24T20:10:49.096Z,1023.94
2019-02-24T20:16:49.101Z,1024.05
2019-02-24T20:22:49.071Z,1024.05
2019-02-24T20:28:49.063Z,1023.97
2019-02-24T20:34:49.082Z,1024.07
2019-02-24T20:40:49.134Z,1024.12
2019-02-24T20:46:49.104Z,1024.03
2019-02-24T20:52:49.105Z,1024.03
2019-02-24T20:58:49.202Z,1023.97
2019-02-24T21:04:49.153Z,1024.12
2019-02-24T21:10:49.114Z,1024.04
2019-02-24T22:01:32.425Z,1024.24
2019-02-24T22:07:32.499Z,1024.12
2019-02-24T22:13:32.633Z,1024.15
2019-02-24T22:19:32.470Z,1024.16
2019-02-24T22:25:32.458Z,1024.21
2019-02-24T22:31:32.693Z,1024.18
2019-02-24T22:37:32.539Z,1024.12
2019-02-24T22:43:32.640Z,1024.14
2019-02-24T22:49:32.482Z,1024.19
2019-02-24T22:55:32.573Z,1024.29
2019-02-24T23:01:32.492Z,1024.35
2019-02-24T23:07:32.515Z,1024.36
2019-02-24T23:13:32.468Z,1024.31
2019-02-24T23:19:32.476Z,1024.29
2019-02-24T23:25:32.474Z,1024.31
2019-02-24T23:31:32.497Z,1024.35
2019-02-24T23:37:32.486Z,1024.29
2019-02-24T23:43:32.513Z,1024.24
2019-02-24T23:49:32.498Z,1024.36
2019-02-24T23:55:32.496Z,1024.42
